Time;durP1;ratioP1;P1;durP2;ratioP2;P2;SDS_P1;SDS_P2;PMS_P1;PMS_P2;Temp;Humidity;BMP_temperature;BMP_pressure;BME280_temperature;BME280_humidity;BME280_pressure;Samples;Min_cycle;Max_cycle;Signal;HPM_P1;HPM_P2
2023/11/12 00:02:36;;;;;;;21.17;12.30;;;;;3.60;100055.00;;;;10335232;28;20258;-72
2023/11/12 00:07:37;;;;;;;21.83;13.03;;;;;3.60;100048.00;;;;10307641;28;20227;-71
2023/11/12 00:12:41;;;;;;;19.57;12.57;;;;;3.50;100048.00;;;;10320626;28;20861;-71
2023/11/12 00:17:44;;;;;;;19.10;12.17;;;;;3.50;100051.00;;;;10310635;28;20253;-72
2023/11/12 00:22:46;;;;;;;17.30;12.63;;;;;3.40;100053.00;;;;10317872;28;20231;-72
2023/11/12 00:27:47;;;;;;;18.27;11.33;;;;;3.30;100058.00;;;;10324611;28;20228;-72
2023/11/12 00:32:49;;;;;;;24.97;12.07;;;;;3.20;100056.00;;;;10316390;28;20227;-72
2023/11/12 00:37:51;;;;;;;24.73;12.90;;;;;3.30;100052.00;;;;10304028;28;20216;-72
2023/11/12 00:42:53;;;;;;;23.77;13.93;;;;;3.40;100038.00;;;;10322132;28;20266;-72
2023/11/12 00:47:55;;;;;;;22.07;13.33;;;;;3.50;100043.00;;;;10316611;28;20637;-71
2023/11/12 00:52:56;;;;;;;20.83;13.43;;;;;3.40;100029.00;;;;10310659;28;20956;-72
2023/11/12 00:57:57;;;;;;;19.80;13.13;;;;;3.40;100039.00;;;;10325924;28;20219;-72
2023/11/12 01:02:58;;;;;;;20.00;13.00;;;;;3.40;100034.00;;;;10301767;28;20235;-72
2023/11/12 01:08:00;;;;;;;21.93;12.77;;;;;3.50;100030.00;;;;10321390;28;20231;-72
2023/11/12 01:13:02;;;;;;;25.00;12.87;;;;;3.70;100030.00;;;;10320919;28;20625;-72
2023/11/12 01:18:04;;;;;;;19.27;12.63;;;;;3.70;100038.00;;;;10315328;28;20235;-72
2023/11/12 01:23:06;;;;;;;24.37;13.03;;;;;3.70;100026.00;;;;10316139;28;20232;-71
2023/11/12 01:28:07;;;;;;;18.97;11.87;;;;;3.70;100028.00;;;;10317653;28;20829;-71
2023/11/12 01:33:08;;;;;;;24.47;13.73;;;;;3.70;100023.00;;;;10319185;28;20311;-70
2023/11/12 01:38:09;;;;;;;23.83;12.80;;;;;3.80;100019.00;;;;10316436;28;20685;-71
2023/11/12 01:43:10;;;;;;;19.30;12.30;;;;;3.80;100004.00;;;;10313310;28;20232;-70
2023/11/12 01:48:13;;;;;;;18.03;12.03;;;;;3.70;99997.00;;;;10312247;28;20258;-70
2023/11/12 01:53:16;;;;;;;16.77;11.47;;;;;3.70;99986.00;;;;10314693;28;20231;-72
2023/11/12 01:58:17;;;;;;;18.47;10.93;;;;;3.60;99988.00;;;;10311992;28;20291;-70
2023/11/12 02:03:20;;;;;;;19.07;11.47;;;;;3.60;99992.00;;;;10311214;28;20244;-70
2023/11/12 02:08:23;;;;;;;24.00;14.10;;;;;3.70;100000.00;;;;10309064;28;20310;-70
2023/11/12 02:13:24;;;;;;;30.07;16.77;;;;;3.70;100006.00;;;;10318217;28;20708;-71
2023/11/12 02:18:25;;;;;;;20.67;15.73;;;;;3.80;100005.00;;;;10325126;28;20224;-70
2023/11/12 02:23:26;;;;;;;24.17;17.27;;;;;3.80;99994.00;;;;10316345;28;20242;-70
2023/11/12 02:28:27;;;;;;;22.17;15.93;;;;;3.90;99996.00;;;;10321296;28;20243;-72
2023/11/12 02:33:29;;;;;;;24.60;15.50;;;;;4.00;100007.00;;;;10316265;28;20567;-70
2023/11/12 02:38:31;;;;;;;23.37;15.53;;;;;4.10;99998.00;;;;10316782;28;20239;-71
2023/11/12 02:43:34;;;;;;;21.97;15.00;;;;;4.10;99999.00;;;;10317806;28;20255;-70
2023/11/12 02:49:02;;;;;;;23.00;15.17;;;;;4.10;99990.00;;;;10332705;28;20287;-71
2023/11/12 02:54:03;;;;;;;22.20;13.97;;;;;4.10;99985.00;;;;10318614;28;20219;-69
2023/11/12 02:59:05;;;;;;;26.13;15.67;;;;;4.10;99985.00;;;;10327208;28;20220;-70
2023/11/12 03:04:06;;;;;;;29.73;17.03;;;;;4.10;99981.00;;;;10315044;28;20255;-70
2023/11/12 03:09:09;;;;;;;28.57;17.30;;;;;4.20;99990.00;;;;10317367;28;20230;-71
2023/11/12 03:14:11;;;;;;;36.30;18.67;;;;;4.20;99989.00;;;;10319614;28;20648;-70
2023/11/12 03:19:12;;;;;;;42.17;18.93;;;;;4.20;99995.00;;;;10317063;28;20302;-70
2023/11/12 03:24:13;;;;;;;34.30;16.83;;;;;4.20;99993.00;;;;10319223;28;20904;-70
2023/11/12 03:29:14;;;;;;;45.03;18.43;;;;;4.20;99981.00;;;;10329338;28;20230;-70
2023/11/12 03:34:15;;;;;;;35.03;16.47;;;;;4.20;99968.00;;;;10311876;28;20228;-70
2023/11/12 03:39:17;;;;;;;28.73;16.87;;;;;4.20;99957.00;;;;10325433;28;20255;-70
2023/11/12 03:44:18;;;;;;;39.50;16.37;;;;;4.20;99936.00;;;;10321171;28;20232;-71
2023/11/12 03:49:20;;;;;;;29.57;15.43;;;;;4.30;99954.00;;;;10323860;28;20227;-72
2023/11/12 03:54:21;;;;;;;37.33;15.50;;;;;4.30;99944.00;;;;10340318;28;20231;-71
2023/11/12 03:59:22;;;;;;;30.47;14.87;;;;;4.30;99938.00;;;;10316037;28;20228;-71
2023/11/12 04:04:24;;;;;;;22.13;12.47;;;;;4.40;99937.00;;;;10310479;28;20235;-71
2023/11/12 04:09:25;;;;;;;28.77;13.40;;;;;4.40;99935.00;;;;10314912;28;20541;-71
2023/11/12 04:14:27;;;;;;;38.90;13.03;;;;;4.50;99943.00;;;;10314981;28;20228;-71
2023/11/12 04:19:28;;;;;;;34.70;12.23;;;;;4.50;99956.00;;;;10298642;28;20243;-71
2023/11/12 04:24:29;;;;;;;28.83;12.87;;;;;4.50;99972.00;;;;10309171;28;20247;-72
2023/11/12 04:29:30;;;;;;;22.83;10.73;;;;;4.50;99981.00;;;;10308850;28;20678;-71
2023/11/12 04:34:32;;;;;;;25.47;11.10;;;;;4.60;99988.00;;;;10317140;28;20309;-71
2023/11/12 04:39:33;;;;;;;22.57;11.70;;;;;4.60;99987.00;;;;10322116;28;20329;-72
2023/11/12 04:44:34;;;;;;;30.63;12.20;;;;;4.70;99988.00;;;;10317879;28;20621;-71
2023/11/12 04:49:35;;;;;;;26.30;13.53;;;;;4.70;99994.00;;;;10324471;28;20921;-71
2023/11/12 04:54:36;;;;;;;25.23;12.00;;;;;4.80;99990.00;;;;10309597;28;20220;-71
2023/11/12 04:59:40;;;;;;;24.43;13.80;;;;;4.80;99983.00;;;;10313064;28;20262;-71
2023/11/12 05:04:42;;;;;;;28.33;12.93;;;;;4.80;99982.00;;;;10327944;28;20309;-71
2023/11/12 05:09:43;;;;;;;25.90;14.30;;;;;4.90;99984.00;;;;10315281;28;20259;-72
2023/11/12 05:14:44;;;;;;;28.53;14.13;;;;;4.90;99983.00;;;;10310757;28;20251;-71
2023/11/12 05:19:45;;;;;;;25.60;14.33;;;;;5.00;99979.00;;;;10309778;28;20254;-71
2023/11/12 05:24:51;;;;;;;22.37;14.30;;;;;5.00;99983.00;;;;10313661;28;20318;-72
2023/11/12 05:29:52;;;;;;;29.60;14.23;;;;;5.00;99990.00;;;;10316808;28;20245;-70
2023/11/12 05:34:53;;;;;;;27.33;15.73;;;;;5.10;99987.00;;;;10311715;28;20242;-70
2023/11/12 05:39:54;;;;;;;27.10;14.90;;;;;5.10;100002.00;;;;10315253;28;20293;-70
2023/11/12 05:44:55;;;;;;;30.73;15.83;;;;;5.10;99996.00;;;;10317576;28;20227;-71
2023/11/12 05:49:56;;;;;;;27.20;14.10;;;;;5.20;100009.00;;;;10322130;28;20247;-73
2023/11/12 05:54:58;;;;;;;23.93;13.20;;;;;5.10;99999.00;;;;10317896;28;20306;-70
2023/11/12 05:59:59;;;;;;;22.37;13.33;;;;;5.10;100003.00;;;;10321604;28;20780;-70
2023/11/12 06:05:00;;;;;;;24.00;13.27;;;;;5.10;99996.00;;;;10331240;28;20787;-72
2023/11/12 06:10:02;;;;;;;24.77;12.70;;;;;5.10;99997.00;;;;10315475;28;20236;-72
2023/11/12 06:15:05;;;;;;;22.87;13.53;;;;;5.10;99996.00;;;;10321505;28;20859;-72
2023/11/12 06:20:07;;;;;;;22.40;13.87;;;;;5.10;99992.00;;;;10312480;28;20303;-72
2023/11/12 06:25:11;;;;;;;22.93;13.77;;;;;5.10;99994.00;;;;10313435;28;20305;-72
2023/11/12 06:30:12;;;;;;;24.47;13.97;;;;;5.00;99994.00;;;;10322669;28;20238;-72
2023/11/12 06:35:13;;;;;;;22.07;12.43;;;;;4.90;99992.00;;;;10319579;28;20244;-72
2023/11/12 06:40:15;;;;;;;21.90;13.37;;;;;4.80;99990.00;;;;10318663;28;20555;-72
2023/11/12 06:45:16;;;;;;;21.63;13.03;;;;;4.80;99991.00;;;;10318447;28;20224;-71
2023/11/12 06:50:17;;;;;;;26.67;14.03;;;;;4.70;99997.00;;;;10319424;28;20219;-72
2023/11/12 06:55:18;;;;;;;28.97;13.60;;;;;4.60;99995.00;;;;10313611;28;20232;-72
2023/11/12 07:00:19;;;;;;;19.40;12.70;;;;;4.60;99995.00;;;;10316768;28;20228;-71
2023/11/12 07:05:21;;;;;;;23.80;13.80;;;;;4.70;99999.00;;;;10309721;28;20284;-71
2023/11/12 07:10:22;;;;;;;29.43;15.97;;;;;4.70;99994.00;;;;10295142;28;20319;-71
2023/11/12 07:15:23;;;;;;;30.47;16.73;;;;;4.90;100002.00;;;;10315941;28;20302;-75
2023/11/12 07:20:28;;;;;;;32.33;16.80;;;;;5.00;100012.00;;;;10325437;28;20316;-74
2023/11/12 07:25:29;;;;;;;38.30;17.93;;;;;5.10;100014.00;;;;10317819;28;20232;-76
2023/11/12 07:30:31;;;;;;;42.37;20.27;;;;;5.20;100014.00;;;;10322142;28;20236;-75
2023/11/12 07:35:32;;;;;;;42.67;20.50;;;;;5.30;100012.00;;;;10330173;28;20227;-75
2023/11/12 07:40:34;;;;;;;44.43;20.87;;;;;5.40;100026.00;;;;10313609;28;20259;-75
2023/11/12 07:45:35;;;;;;;47.37;21.07;;;;;5.60;100029.00;;;;10314010;28;20286;-74
2023/11/12 07:50:41;;;;;;;39.23;19.57;;;;;5.70;100030.00;;;;10317353;28;20827;-75
2023/11/12 07:55:42;;;;;;;55.17;22.23;;;;;5.80;100029.00;;;;10317094;28;20232;-75
2023/11/12 08:00:43;;;;;;;42.87;21.83;;;;;6.00;100041.00;;;;10325791;28;20238;-75
2023/11/12 08:05:45;;;;;;;36.23;18.93;;;;;6.10;100045.00;;;;10311667;28;20224;-75
2023/11/12 08:10:47;;;;;;;41.53;19.80;;;;;6.10;100055.00;;;;10295117;28;20311;-75
2023/11/12 08:15:48;;;;;;;34.00;18.23;;;;;6.20;100055.00;;;;10316397;28;20311;-75
2023/11/12 08:20:49;;;;;;;35.03;17.90;;;;;6.30;100055.00;;;;10318536;28;20231;-75
2023/11/12 08:25:50;;;;;;;27.20;15.90;;;;;6.40;100059.00;;;;10317958;28;20247;-72
2023/11/12 08:30:51;;;;;;;26.20;14.07;;;;;6.50;100064.00;;;;10310574;28;20224;-72
2023/11/12 08:35:52;;;;;;;23.60;13.93;;;;;6.70;100077.00;;;;10313384;28;20223;-72
2023/11/12 08:40:54;;;;;;;23.90;13.57;;;;;6.80;100065.00;;;;10315290;28;20237;-72
2023/11/12 08:45:55;;;;;;;29.10;13.90;;;;;7.00;100061.00;;;;10306284;28;20302;-72
2023/11/12 08:50:58;;;;;;;24.03;12.60;;;;;7.10;100062.00;;;;10311905;28;20307;-72
2023/11/12 08:55:59;;;;;;;22.50;12.37;;;;;7.10;100061.00;;;;10314748;28;20232;-72
2023/11/12 09:01:03;;;;;;;26.73;12.97;;;;;7.20;100068.00;;;;10321868;28;20231;-72
2023/11/12 09:06:05;;;;;;;25.53;12.40;;;;;7.20;100062.00;;;;10319083;28;20231;-72
2023/11/12 09:11:06;;;;;;;22.77;11.27;;;;;7.20;100075.00;;;;10313901;28;20247;-72
2023/11/12 09:16:07;;;;;;;26.87;12.73;;;;;7.30;100069.00;;;;10309243;28;20271;-72
2023/11/12 09:21:08;;;;;;;22.43;11.67;;;;;7.30;100060.00;;;;10294850;28;20230;-72
2023/11/12 09:26:19;;;;;;;20.00;12.53;;;;;7.40;100069.00;;;;10307446;28;20223;-72
2023/11/12 09:31:20;;;;;;;19.10;11.60;;;;;7.50;100068.00;;;;10314881;28;20227;-72
2023/11/12 09:36:21;;;;;;;20.83;11.53;;;;;7.40;100070.00;;;;10312016;28;20231;-72
2023/11/12 09:41:23;;;;;;;21.53;11.10;;;;;7.30;100067.00;;;;10294645;28;20234;-72
2023/11/12 09:46:24;;;;;;;21.10;11.10;;;;;7.30;100062.00;;;;10312026;28;20227;-72
2023/11/12 09:51:26;;;;;;;17.90;10.73;;;;;7.30;100085.00;;;;10292771;28;20223;-72
2023/11/12 09:56:28;;;;;;;16.30;10.40;;;;;7.50;100080.00;;;;10309492;28;20224;-72
2023/11/12 10:01:30;;;;;;;23.10;11.30;;;;;7.70;100088.00;;;;10313346;28;20278;-72
2023/11/12 10:06:32;;;;;;;18.97;10.83;;;;;7.90;100085.00;;;;10309728;28;20271;-72
2023/11/12 10:11:33;;;;;;;21.67;11.27;;;;;8.10;100088.00;;;;10307394;28;20231;-72
2023/11/12 10:16:34;;;;;;;27.47;14.67;;;;;8.60;100095.00;;;;10308812;28;20266;-72
2023/11/12 10:21:35;;;;;;;39.87;15.70;;;;;9.30;100099.00;;;;10291701;28;20250;-72
2023/11/12 10:26:38;;;;;;;16.57;9.83;;;;;9.70;100111.00;;;;10290002;28;20298;-72
2023/11/12 10:31:39;;;;;;;22.20;12.30;;;;;10.20;100126.00;;;;10318175;28;20319;-72
2023/11/12 10:36:57;;;;;;;20.53;11.37;;;;;10.50;100123.00;;;;10313083;28;20243;-72
2023/11/12 10:42:00;;;;;;;14.53;7.57;;;;;10.90;100128.00;;;;10311218;28;20231;-72
2023/11/12 10:47:04;;;;;;;13.90;8.03;;;;;10.80;100126.00;;;;10324071;28;20786;-74
2023/11/12 10:52:08;;;;;;;12.90;6.40;;;;;10.50;100131.00;;;;10335307;28;20220;-75
2023/11/12 10:57:11;;;;;;;10.60;5.90;;;;;10.60;100141.00;;;;10322887;28;20236;-75
2023/11/12 11:02:19;;;;;;;11.83;5.33;;;;;11.20;100138.00;;;;10315621;28;20685;-75
2023/11/12 11:07:21;;;;;;;8.87;5.17;;;;;11.00;100128.00;;;;10314588;28;20233;-76
2023/11/12 11:12:22;;;;;;;11.20;4.90;;;;;10.90;100118.00;;;;10331905;28;20266;-76
2023/11/12 11:17:37;;;;;;;6.90;4.30;;;;;10.50;100123.00;;;;10324004;28;20239;-75
2023/11/12 11:22:39;;;;;;;11.53;3.90;;;;;10.40;100120.00;;;;10310836;28;20240;-75
2023/11/12 11:27:40;;;;;;;13.97;4.23;;;;;10.30;100114.00;;;;10316997;28;20232;-75
2023/11/12 11:32:59;;;;;;;11.63;4.53;;;;;10.40;100107.00;;;;10316327;28;20285;-76
2023/11/12 11:38:12;;;;;;;10.17;4.47;;;;;10.60;100096.00;;;;10314264;28;20215;-75
2023/11/12 11:43:23;;;;;;;8.73;3.67;;;;;10.90;100089.00;;;;10317063;28;20697;-75
2023/11/12 11:48:24;;;;;;;9.60;3.70;;;;;11.00;100086.00;;;;10321739;28;20311;-76
2023/11/12 11:53:27;;;;;;;7.90;3.47;;;;;10.90;100082.00;;;;10323652;28;20234;-72
2023/11/12 11:58:38;;;;;;;7.77;3.57;;;;;10.80;100068.00;;;;10306725;28;20221;-72
2023/11/12 12:03:42;;;;;;;8.13;3.97;;;;;10.70;100070.00;;;;10312605;28;20251;-72
2023/11/12 12:08:52;;;;;;;11.27;3.70;;;;;10.60;100074.00;;;;10313136;28;20890;-72
2023/11/12 12:14:04;;;;;;;6.07;3.63;;;;;10.50;100076.00;;;;10311660;28;20244;-72
2023/11/12 12:19:08;;;;;;;4.73;3.03;;;;;10.50;100068.00;;;;10308302;28;20224;-72
2023/11/12 12:24:10;;;;;;;6.30;2.67;;;;;10.40;100079.00;;;;10304587;28;20250;-72
2023/11/12 12:29:20;;;;;;;6.20;2.80;;;;;10.30;100084.00;;;;10308981;28;20805;-72
2023/11/12 12:34:24;;;;;;;5.20;2.97;;;;;10.30;100092.00;;;;10309285;28;20312;-72
2023/11/12 12:39:26;;;;;;;5.33;2.80;;;;;10.20;100092.00;;;;10307479;28;20251;-72
2023/11/12 12:44:28;;;;;;;8.67;2.93;;;;;10.30;100099.00;;;;10309730;28;20806;-72
2023/11/12 12:49:39;;;;;;;5.97;3.23;;;;;10.50;100104.00;;;;10311957;28;20332;-72
2023/11/12 12:54:41;;;;;;;5.47;3.30;;;;;10.60;100108.00;;;;10310595;28;20314;-72
2023/11/12 12:59:43;;;;;;;7.87;3.00;;;;;10.50;100105.00;;;;10303229;28;20282;-72
2023/11/12 13:04:46;;;;;;;6.10;2.73;;;;;10.30;100094.00;;;;10316126;28;20267;-75
2023/11/12 13:09:49;;;;;;;9.53;2.93;;;;;10.10;100098.00;;;;10318510;28;20223;-75
2023/11/12 13:14:50;;;;;;;8.17;2.93;;;;;10.00;100097.00;;;;10324988;28;20759;-75
2023/11/12 13:19:54;;;;;;;9.97;3.77;;;;;9.90;100105.00;;;;10293450;28;20227;-75
2023/11/12 13:24:55;;;;;;;8.97;3.40;;;;;10.00;100107.00;;;;10295772;28;20539;-75
2023/11/12 13:29:57;;;;;;;8.77;3.13;;;;;10.10;100110.00;;;;10318301;28;20223;-74
2023/11/12 13:34:58;;;;;;;5.63;3.00;;;;;10.10;100108.00;;;;10330617;28;20423;-74
2023/11/12 13:39:59;;;;;;;9.10;2.90;;;;;10.30;100112.00;;;;10320768;28;20235;-74
2023/11/12 13:45:03;;;;;;;7.73;3.00;;;;;10.30;100113.00;;;;10320140;28;20233;-74
2023/11/12 13:50:10;;;;;;;8.37;3.00;;;;;10.20;100114.00;;;;10309874;28;20243;-75
2023/11/12 13:55:17;;;;;;;4.77;2.70;;;;;10.20;100124.00;;;;10324703;28;20306;-75
2023/11/12 14:00:19;;;;;;;5.10;2.90;;;;;10.10;100101.00;;;;10316169;28;20220;-75
2023/11/12 14:05:26;;;;;;;9.10;3.63;;;;;9.90;100110.00;;;;10318306;28;20813;-75
2023/11/12 14:10:27;;;;;;;8.83;3.10;;;;;9.70;100111.00;;;;10298691;28;20989;-75
2023/11/12 14:15:33;;;;;;;7.63;4.10;;;;;9.70;100103.00;;;;10316536;28;20237;-73
2023/11/12 14:20:34;;;;;;;6.33;3.33;;;;;9.70;100114.00;;;;10317962;28;20259;-72
2023/11/12 14:25:35;;;;;;;10.60;4.53;;;;;9.70;100117.00;;;;10314037;28;20744;-72
2023/11/12 14:30:37;;;;;;;9.83;4.07;;;;;9.50;100124.00;;;;10310924;28;20302;-72
2023/11/12 14:35:39;;;;;;;6.77;3.70;;;;;9.40;100134.00;;;;10306206;28;20227;-73
2023/11/12 14:40:40;;;;;;;7.30;2.90;;;;;9.40;100142.00;;;;10316045;28;20274;-72
2023/11/12 14:45:43;;;;;;;8.43;3.43;;;;;9.40;100148.00;;;;10321788;28;20232;-72
2023/11/12 14:50:44;;;;;;;7.80;3.63;;;;;9.50;100164.00;;;;10330512;28;20236;-72
2023/11/12 14:55:45;;;;;;;8.60;3.47;;;;;9.60;100170.00;;;;10316259;28;20244;-72
2023/11/12 15:00:46;;;;;;;11.27;4.83;;;;;9.50;100175.00;;;;10318423;28;20250;-73
2023/11/12 15:05:47;;;;;;;6.77;4.77;;;;;9.40;100177.00;;;;10319437;28;20226;-72
2023/11/12 15:10:48;;;;;;;9.03;4.40;;;;;9.40;100190.00;;;;10332057;28;20247;-72
2023/11/12 15:15:49;;;;;;;13.37;4.40;;;;;9.30;100204.00;;;;10315994;28;20233;-72
2023/11/12 15:20:51;;;;;;;12.93;4.70;;;;;9.30;100207.00;;;;10319583;28;20311;-72
2023/11/12 15:25:52;;;;;;;11.70;4.90;;;;;9.40;100204.00;;;;10315565;28;20230;-75
2023/11/12 15:30:53;;;;;;;11.90;5.13;;;;;9.30;100194.00;;;;10336737;28;20808;-76
2023/11/12 15:35:54;;;;;;;10.20;5.57;;;;;9.10;100197.00;;;;10321054;28;20250;-75
2023/11/12 15:40:57;;;;;;;14.87;6.10;;;;;8.90;100194.00;;;;10322721;28;20235;-75
2023/11/12 15:46:00;;;;;;;13.97;5.60;;;;;8.70;100191.00;;;;10331600;28;20312;-76
2023/11/12 15:51:01;;;;;;;9.97;5.83;;;;;8.60;100186.00;;;;10313922;28;20219;-75
2023/11/12 15:56:04;;;;;;;8.93;5.87;;;;;8.50;100190.00;;;;10315084;28;20220;-75
2023/11/12 16:01:05;;;;;;;11.50;6.13;;;;;8.40;100165.00;;;;10314446;28;20319;-75
2023/11/12 16:06:06;;;;;;;16.07;6.30;;;;;8.40;100155.00;;;;10322018;28;20235;-76
2023/11/12 16:11:08;;;;;;;10.00;5.50;;;;;8.30;100148.00;;;;10308911;28;20310;-76
2023/11/12 16:16:09;;;;;;;11.97;5.93;;;;;8.20;100168.00;;;;10327992;28;20831;-75
2023/11/12 16:21:11;;;;;;;10.17;5.90;;;;;8.20;100161.00;;;;10313771;28;20251;-76
2023/11/12 16:26:13;;;;;;;14.63;7.20;;;;;8.10;100171.00;;;;10301932;28;20255;-76
2023/11/12 16:31:14;;;;;;;13.90;6.97;;;;;8.10;100168.00;;;;10324709;28;20726;-76
2023/11/12 16:36:16;;;;;;;20.07;9.27;;;;;8.00;100156.00;;;;10316847;28;20223;-73
2023/11/12 16:41:17;;;;;;;11.50;7.20;;;;;7.90;100143.00;;;;10313315;28;20239;-73
2023/11/12 16:46:18;;;;;;;14.77;7.53;;;;;7.80;100142.00;;;;10322632;28;20653;-73
2023/11/12 16:51:19;;;;;;;16.50;7.83;;;;;7.80;100155.00;;;;10315590;28;20736;-72
2023/11/12 16:56:21;;;;;;;13.83;7.33;;;;;7.80;100168.00;;;;10319003;28;20687;-73
2023/11/12 17:01:22;;;;;;;12.10;7.40;;;;;7.80;100158.00;;;;10311005;28;20651;-72
2023/11/12 17:06:23;;;;;;;16.17;6.97;;;;;7.80;100169.00;;;;10309153;28;20843;-72
2023/11/12 17:11:25;;;;;;;15.37;7.10;;;;;7.90;100169.00;;;;10315468;28;20220;-73
2023/11/12 17:16:26;;;;;;;18.40;8.83;;;;;7.90;100184.00;;;;10321134;28;20980;-73
2023/11/12 17:21:32;;;;;;;15.97;8.73;;;;;7.90;100224.00;;;;10319031;28;20751;-73
2023/11/12 17:26:33;;;;;;;14.63;7.37;;;;;7.90;100185.00;;;;10311227;28;20232;-73
2023/11/12 17:31:35;;;;;;;17.37;9.07;;;;;7.90;100186.00;;;;10311205;28;20215;-73
2023/11/12 17:36:36;;;;;;;13.90;7.37;;;;;7.90;100231.00;;;;10306877;28;20216;-73
2023/11/12 17:41:38;;;;;;;12.40;8.07;;;;;7.90;100221.00;;;;10324655;28;20239;-73
2023/11/12 17:46:39;;;;;;;14.03;8.57;;;;;7.90;100239.00;;;;10315796;28;20235;-72
2023/11/12 17:51:41;;;;;;;11.77;8.33;;;;;7.90;100235.00;;;;10320367;28;20761;-73
2023/11/12 17:56:42;;;;;;;10.73;7.60;;;;;7.90;100234.00;;;;10314056;28;20646;-75
2023/11/12 18:01:45;;;;;;;8.63;6.57;;;;;7.90;100239.00;;;;10320615;28;20821;-75
2023/11/12 18:06:47;;;;;;;9.07;5.43;;;;;7.90;100229.00;;;;10323190;28;20228;-75
2023/11/12 18:11:49;;;;;;;11.40;4.73;;;;;7.80;100203.00;;;;10314376;28;20235;-75
2023/11/12 18:16:50;;;;;;;13.13;4.87;;;;;7.80;100190.00;;;;10319639;28;20255;-76
2023/11/12 18:21:51;;;;;;;7.73;4.30;;;;;7.70;100206.00;;;;10317499;28;20284;-75
2023/11/12 18:26:55;;;;;;;10.47;4.80;;;;;7.70;100202.00;;;;10323142;28;20219;-75
2023/11/12 18:32:00;;;;;;;8.40;5.20;;;;;7.70;100195.00;;;;10319177;28;20327;-75
2023/11/12 18:37:03;;;;;;;7.50;4.53;;;;;7.70;100187.00;;;;10316156;28;20311;-75
2023/11/12 18:42:05;;;;;;;8.03;4.63;;;;;7.80;100182.00;;;;10308402;28;20226;-75
2023/11/12 18:47:07;;;;;;;8.93;5.50;;;;;7.80;100198.00;;;;10315380;28;20274;-75
2023/11/12 18:52:08;;;;;;;9.97;5.70;;;;;7.80;100182.00;;;;10337485;28;20239;-75
2023/11/12 18:57:09;;;;;;;8.17;4.93;;;;;7.80;100198.00;;;;10325615;28;20232;-75
2023/11/12 19:02:10;;;;;;;10.00;5.93;;;;;7.80;100215.00;;;;10331552;28;20223;-75
2023/11/12 19:07:14;;;;;;;13.93;6.23;;;;;7.80;100233.00;;;;10325369;28;20231;-75
2023/11/12 19:12:16;;;;;;;8.97;5.60;;;;;7.80;100219.00;;;;10307749;28;20845;-75
2023/11/12 19:17:17;;;;;;;9.30;5.50;;;;;7.90;100231.00;;;;10319387;28;20226;-75
2023/11/12 19:22:18;;;;;;;9.00;5.97;;;;;7.80;100204.00;;;;10320972;28;20367;-75
2023/11/12 19:27:21;;;;;;;8.90;6.03;;;;;7.80;100190.00;;;;10315512;28;20251;-75
2023/11/12 19:32:22;;;;;;;7.03;5.93;;;;;7.90;100214.00;;;;10322965;28;20625;-75
2023/11/12 19:37:23;;;;;;;10.27;5.60;;;;;7.90;100194.00;;;;10323163;28;20227;-76
2023/11/12 19:42:27;;;;;;;8.27;5.43;;;;;7.80;100189.00;;;;10311234;28;20232;-75
2023/11/12 19:47:29;;;;;;;10.20;5.93;;;;;7.80;100180.00;;;;10318969;28;20228;-75
2023/11/12 19:52:33;;;;;;;8.03;4.87;;;;;7.80;100195.00;;;;10317217;28;20223;-75
2023/11/12 19:57:34;;;;;;;13.73;5.43;;;;;7.80;100232.00;;;;10316141;28;20314;-75
2023/11/12 20:02:37;;;;;;;8.77;4.80;;;;;7.80;100245.00;;;;10295694;28;20447;-75
2023/11/12 20:07:39;;;;;;;6.50;5.33;;;;;7.80;100249.00;;;;10312523;28;20247;-75
2023/11/12 20:12:40;;;;;;;11.40;5.63;;;;;7.80;100239.00;;;;10319795;28;20223;-75
2023/11/12 20:17:45;;;;;;;8.77;5.87;;;;;7.80;100235.00;;;;10317108;28;20242;-70
2023/11/12 20:22:46;;;;;;;7.13;5.43;;;;;7.80;100251.00;;;;10310832;28;20709;-70
2023/11/12 20:27:47;;;;;;;9.30;5.30;;;;;7.80;100256.00;;;;10323794;28;20224;-71
2023/11/12 20:32:50;;;;;;;8.40;4.90;;;;;7.90;100259.00;;;;10294348;28;20559;-70
2023/11/12 20:37:51;;;;;;;6.90;4.47;;;;;7.80;100245.00;;;;10312459;28;20250;-69
2023/11/12 20:42:55;;;;;;;6.77;4.73;;;;;7.80;100217.00;;;;10315035;28;20238;-71
2023/11/12 20:48:00;;;;;;;7.10;4.53;;;;;7.80;100204.00;;;;10313618;28;20220;-70
2023/11/12 20:53:02;;;;;;;5.60;4.30;;;;;7.80;100191.00;;;;10314577;28;20227;-70
2023/11/12 20:58:06;;;;;;;6.43;4.30;;;;;7.80;100184.00;;;;10320181;28;20794;-70
2023/11/12 21:03:07;;;;;;;5.80;4.03;;;;;7.70;100156.00;;;;10313035;28;20236;-70
2023/11/12 21:08:09;;;;;;;6.53;4.20;;;;;7.70;100149.00;;;;10315844;28;20256;-71
2023/11/12 21:13:10;;;;;;;6.57;4.80;;;;;7.70;100145.00;;;;10318856;28;20295;-69
2023/11/12 21:18:12;;;;;;;6.47;4.53;;;;;7.60;100161.00;;;;10310522;28;20227;-69
2023/11/12 21:23:14;;;;;;;6.23;5.10;;;;;7.60;100178.00;;;;10304692;28;20231;-69
2023/11/12 21:28:15;;;;;;;5.73;4.57;;;;;7.60;100178.00;;;;10312719;28;20693;-71
2023/11/12 21:33:16;;;;;;;6.90;4.73;;;;;7.60;100169.00;;;;10306228;28;20224;-70
2023/11/12 21:38:18;;;;;;;6.27;4.23;;;;;7.60;100204.00;;;;10311012;28;20296;-70
2023/11/12 21:43:19;;;;;;;4.67;3.87;;;;;7.60;100215.00;;;;10311997;28;20231;-70
2023/11/12 21:48:20;;;;;;;6.43;4.73;;;;;7.60;100217.00;;;;10317998;28;20310;-70
2023/11/12 21:53:25;;;;;;;8.17;4.83;;;;;7.60;100213.00;;;;10312048;28;20223;-71
2023/11/12 21:58:26;;;;;;;5.93;5.00;;;;;7.60;100211.00;;;;10311544;28;20793;-71
2023/11/12 22:03:28;;;;;;;5.67;4.40;;;;;7.60;100224.00;;;;10304019;28;20323;-71
2023/11/12 22:08:29;;;;;;;5.73;4.70;;;;;7.60;100212.00;;;;10300651;28;20850;-71
2023/11/12 22:13:31;;;;;;;7.17;4.93;;;;;7.60;100211.00;;;;10312333;28;20954;-70
2023/11/12 22:18:35;;;;;;;6.20;4.43;;;;;7.60;100237.00;;;;10317909;28;20323;-72
2023/11/12 22:23:38;;;;;;;6.50;4.93;;;;;7.60;100218.00;;;;10315859;28;20230;-71
2023/11/12 22:28:39;;;;;;;7.27;4.97;;;;;7.60;100218.00;;;;10318564;28;20224;-70
2023/11/12 22:33:41;;;;;;;6.80;4.90;;;;;7.50;100225.00;;;;10323379;28;20817;-73
2023/11/12 22:38:42;;;;;;;5.80;4.50;;;;;7.50;100216.00;;;;10312756;28;20224;-73
2023/11/12 22:43:44;;;;;;;8.10;4.67;;;;;7.50;100214.00;;;;10313084;28;21088;-73
2023/11/12 22:48:45;;;;;;;48.53;20.77;;;;;7.50;100211.00;;;;10319177;28;20228;-73
2023/11/12 22:53:48;;;;;;;107.37;44.47;;;;;7.50;100216.00;;;;10332986;28;20228;-72
2023/11/12 22:58:50;;;;;;;9.10;6.43;;;;;7.50;100212.00;;;;10306121;28;20220;-73
2023/11/12 23:03:51;;;;;;;8.73;4.97;;;;;7.50;100197.00;;;;10316343;28;20228;-73
2023/11/12 23:08:52;;;;;;;6.50;5.33;;;;;7.50;100196.00;;;;10312801;28;20729;-73
2023/11/12 23:13:53;;;;;;;7.60;5.80;;;;;7.50;100185.00;;;;10327281;28;20227;-72
2023/11/12 23:18:54;;;;;;;6.43;5.50;;;;;7.50;100168.00;;;;10314858;28;20327;-73
2023/11/12 23:23:56;;;;;;;7.53;6.50;;;;;7.50;100165.00;;;;10311036;28;20285;-73
2023/11/12 23:28:57;;;;;;;10.60;6.67;;;;;7.50;100157.00;;;;10317169;28;20224;-73
2023/11/12 23:33:58;;;;;;;9.60;5.80;;;;;7.50;100168.00;;;;10318728;28;20229;-72
2023/11/12 23:38:59;;;;;;;7.70;6.10;;;;;7.50;100160.00;;;;10320563;28;20946;-72
2023/11/12 23:44:01;;;;;;;10.13;6.67;;;;;7.60;100161.00;;;;10320497;28;20850;-71
2023/11/12 23:49:03;;;;;;;9.83;5.90;;;;;7.60;100154.00;;;;10318039;28;20863;-70
2023/11/12 23:54:05;;;;;;;7.20;5.67;;;;;7.60;100140.00;;;;10323990;28;20235;-70
2023/11/12 23:59:07;;;;;;;10.00;6.33;;;;;7.60;100140.00;;;;10321148;28;20220;-72
